createdAt,value
2017-10-02T00:00:30.960Z,20.63
2017-10-02T00:02:58.503Z,17.73
2017-10-02T00:05:26.074Z,21.90
2017-10-02T00:07:53.583Z,21.20
2017-10-02T00:10:21.141Z,22.33
2017-10-02T00:12:49.309Z,22.97
2017-10-02T00:15:17.083Z,24.00
2017-10-02T00:17:44.620Z,26.03
2017-10-02T00:20:12.524Z,24.77
2017-10-02T00:22:40.066Z,20.10
2017-10-02T00:25:07.652Z,21.00
2017-10-02T00:27:35.933Z,24.47
2017-10-02T00:30:03.456Z,23.83
2017-10-02T00:32:30.985Z,22.97
2017-10-02T00:34:58.500Z,24.40
2017-10-02T00:37:26.436Z,14.97
2017-10-02T00:39:53.932Z,20.60
2017-10-02T00:42:22.334Z,16.83
2017-10-02T00:44:49.863Z,18.40
2017-10-02T00:47:17.659Z,17.50
2017-10-02T00:49:45.157Z,26.30
2017-10-02T00:52:12.653Z,24.70
2017-10-02T00:54:40.943Z,29.47
2017-10-02T00:57:08.464Z,27.13
2017-10-02T00:59:35.985Z,24.53
2017-10-02T01:02:03.515Z,23.70
2017-10-02T01:04:31.015Z,27.60
2017-10-02T01:06:58.558Z,25.90
2017-10-02T01:09:26.071Z,23.00
2017-10-02T01:11:55.073Z,18.70
2017-10-02T01:14:23.448Z,22.87
2017-10-02T01:16:51.373Z,23.23
2017-10-02T01:19:18.912Z,20.80
2017-10-02T01:21:46.422Z,20.23
2017-10-02T01:24:14.729Z,24.80
2017-10-02T01:26:42.229Z,23.93
2017-10-02T01:29:09.763Z,23.63
2017-10-02T01:31:37.271Z,29.80
2017-10-02T01:34:05.578Z,34.07
2017-10-02T01:36:33.080Z,33.73
2017-10-02T01:39:00.605Z,39.70
2017-10-02T01:41:28.101Z,37.60
2017-10-02T01:43:55.660Z,35.00
2017-10-02T01:46:23.195Z,28.20
2017-10-02T01:48:50.716Z,33.87
2017-10-02T01:51:18.974Z,26.37
2017-10-02T01:53:46.508Z,33.93
2017-10-02T01:56:14.407Z,22.67
2017-10-02T01:58:41.931Z,26.33
2017-10-02T02:01:09.564Z,22.67
2017-10-02T02:03:37.212Z,24.27
2017-10-02T02:06:04.697Z,28.07
2017-10-02T02:08:32.219Z,22.67
2017-10-02T02:11:00.519Z,26.33
2017-10-02T02:13:28.050Z,22.13
2017-10-02T02:15:56.617Z,21.43
2017-10-02T02:18:24.142Z,22.00
2017-10-02T02:20:51.643Z,20.37
2017-10-02T02:23:20.576Z,24.20
2017-10-02T02:25:48.064Z,23.53
2017-10-02T02:28:15.551Z,22.20
2017-10-02T02:30:44.211Z,27.20
2017-10-02T02:33:12.038Z,25.20
2017-10-02T02:35:39.801Z,23.00
2017-10-02T02:38:07.350Z,24.97
2017-10-02T02:40:35.019Z,18.90
2017-10-02T02:43:02.519Z,23.00
2017-10-02T02:45:30.057Z,22.70
2017-10-02T02:47:57.544Z,24.30
2017-10-02T02:50:25.069Z,24.30
2017-10-02T02:52:52.560Z,19.70
2017-10-02T02:55:20.873Z,22.07
2017-10-02T02:57:48.434Z,25.87
2017-10-02T03:00:15.976Z,31.87
2017-10-02T03:02:43.475Z,26.47
2017-10-02T03:05:11.269Z,22.80
2017-10-02T03:07:39.532Z,23.60
2017-10-02T03:10:07.053Z,26.90
2017-10-02T03:12:34.572Z,22.23
2017-10-02T03:15:02.073Z,29.93
2017-10-02T03:17:29.625Z,31.73
2017-10-02T03:19:57.128Z,36.67
2017-10-02T03:22:24.627Z,27.93
2017-10-02T03:24:52.182Z,24.10
2017-10-02T03:27:20.068Z,23.63
2017-10-02T03:29:47.564Z,29.77
2017-10-02T03:32:15.129Z,21.83
2017-10-02T03:34:42.637Z,29.60
2017-10-02T03:37:10.943Z,26.07
2017-10-02T03:39:38.669Z,25.47
2017-10-02T03:42:06.195Z,25.00
2017-10-02T03:44:33.717Z,22.47
2017-10-02T03:47:01.205Z,23.60
2017-10-02T03:49:28.745Z,22.70
2017-10-02T03:51:56.240Z,29.00
2017-10-02T03:54:23.739Z,21.73
2017-10-02T03:56:51.265Z,19.80
2017-10-02T03:59:18.868Z,20.63
2017-10-02T04:01:46.530Z,25.00
2017-10-02T04:04:14.057Z,21.90
2017-10-02T04:06:42.468Z,20.27
2017-10-02T04:09:10.007Z,22.20
2017-10-02T04:11:37.500Z,23.53
2017-10-02T04:14:04.990Z,18.67
2017-10-02T04:16:32.544Z,22.33
2017-10-02T04:19:00.040Z,29.23
2017-10-02T04:21:27.533Z,25.93
2017-10-02T04:23:55.073Z,28.03
2017-10-02T04:26:22.573Z,26.03
2017-10-02T04:28:50.066Z,24.83
2017-10-02T04:31:18.379Z,26.07
2017-10-02T04:33:45.892Z,22.43
2017-10-02T04:36:13.442Z,19.90
2017-10-02T04:38:40.984Z,22.20
2017-10-02T04:41:08.483Z,25.00
2017-10-02T04:43:36.035Z,29.70
2017-10-02T04:46:03.694Z,29.47
2017-10-02T04:48:31.979Z,30.50
2017-10-02T04:51:00.285Z,24.37
2017-10-02T04:53:27.789Z,25.87
2017-10-02T04:55:55.347Z,23.73
2017-10-02T04:58:22.865Z,24.63
2017-10-02T05:00:50.396Z,21.37
2017-10-02T05:03:17.944Z,17.77
2017-10-02T05:05:46.199Z,20.57
2017-10-02T05:08:13.704Z,23.37
2017-10-02T05:10:41.224Z,26.80
2017-10-02T05:13:09.542Z,18.90
2017-10-02T05:15:37.076Z,22.53
2017-10-02T05:18:04.624Z,25.13
2017-10-02T05:20:32.132Z,17.63
2017-10-02T05:22:59.625Z,20.60
2017-10-02T05:25:27.169Z,21.90
2017-10-02T05:27:54.668Z,19.90
2017-10-02T05:30:22.216Z,19.83
2017-10-02T05:32:50.475Z,18.00
2017-10-02T05:35:17.965Z,18.50
2017-10-02T05:37:46.261Z,21.63
2017-10-02T05:40:14.520Z,16.70
2017-10-02T05:42:42.018Z,16.93
2017-10-02T05:45:09.591Z,16.47
2017-10-02T05:47:37.091Z,14.40
2017-10-02T05:50:04.617Z,14.30
2017-10-02T05:52:32.158Z,15.13
2017-10-02T05:54:59.660Z,14.13
2017-10-02T05:57:27.175Z,16.47
2017-10-02T05:59:54.897Z,14.70
2017-10-02T06:02:22.440Z,11.27
2017-10-02T06:04:49.936Z,11.73
2017-10-02T06:07:17.446Z,12.10
2017-10-02T06:09:44.980Z,8.57
2017-10-02T06:12:12.471Z,7.00
2017-10-02T06:14:40.047Z,9.90
2017-10-02T06:17:07.548Z,7.90
2017-10-02T06:19:35.073Z,9.00
2017-10-02T06:22:02.631Z,7.93
2017-10-02T06:24:30.915Z,9.47
2017-10-02T06:26:58.417Z,7.50
2017-10-02T06:29:26.256Z,8.13
2017-10-02T06:31:54.809Z,8.40
2017-10-02T06:34:22.349Z,8.03
2017-10-02T06:36:49.876Z,7.93
2017-10-02T06:39:17.366Z,6.30
2017-10-02T06:41:44.891Z,9.83
2017-10-02T06:44:12.803Z,7.33
2017-10-02T06:46:41.408Z,7.77
2017-10-02T06:49:09.681Z,6.80
2017-10-02T06:51:37.185Z,8.03
2017-10-02T06:54:04.741Z,7.77
2017-10-02T06:56:32.247Z,6.93
2017-10-02T06:58:59.808Z,5.47
2017-10-02T07:01:28.085Z,9.30
2017-10-02T07:03:56.348Z,8.27
2017-10-02T07:06:24.659Z,8.30
2017-10-02T07:08:52.952Z,5.73
2017-10-02T07:11:20.712Z,8.80
2017-10-02T07:13:48.243Z,5.87
2017-10-02T07:16:16.553Z,7.33
2017-10-02T07:18:44.049Z,7.80
2017-10-02T07:21:11.573Z,5.90
2017-10-02T07:23:39.194Z,6.50
2017-10-02T07:26:06.730Z,11.43
2017-10-02T07:28:34.224Z,4.70
2017-10-02T07:31:02.516Z,6.90
2017-10-02T07:33:30.023Z,6.63
2017-10-02T07:35:57.533Z,9.13
2017-10-02T07:38:25.065Z,8.93
2017-10-02T07:40:52.589Z,5.23
2017-10-02T07:43:20.084Z,6.10
2017-10-02T07:45:48.355Z,7.03
2017-10-02T07:48:16.658Z,5.90
2017-10-02T07:50:44.648Z,6.23
2017-10-02T07:53:12.147Z,8.43
2017-10-02T07:55:40.430Z,9.50
2017-10-02T07:58:07.952Z,10.70
2017-10-02T08:00:35.472Z,11.57
2017-10-02T08:03:02.971Z,7.77
2017-10-02T08:05:30.494Z,11.83
2017-10-02T08:07:58.008Z,12.57
2017-10-02T08:10:25.535Z,9.10
2017-10-02T08:12:53.047Z,10.37
2017-10-02T08:15:21.337Z,10.33
2017-10-02T08:17:48.833Z,8.97
2017-10-02T08:20:16.339Z,11.37
2017-10-02T08:22:43.863Z,12.57
2017-10-02T08:25:11.792Z,10.90
2017-10-02T08:27:39.292Z,13.40
2017-10-02T08:30:06.814Z,11.23
2017-10-02T08:32:34.346Z,10.60
2017-10-02T08:35:02.673Z,8.60
2017-10-02T08:37:30.171Z,9.57
2017-10-02T08:39:57.705Z,9.73
2017-10-02T08:42:25.195Z,8.23
2017-10-02T08:44:52.696Z,8.50
2017-10-02T08:47:20.238Z,9.27
2017-10-02T08:49:47.748Z,9.07
2017-10-02T08:52:15.244Z,7.70
2017-10-02T08:54:43.543Z,7.97
2017-10-02T08:57:11.112Z,8.83
2017-10-02T08:59:38.609Z,7.60
2017-10-02T09:02:06.098Z,10.77
2017-10-02T09:04:33.777Z,6.80
2017-10-02T09:07:02.046Z,8.43
2017-10-02T09:09:30.235Z,6.37
2017-10-02T09:11:57.780Z,6.57
2017-10-02T09:14:25.280Z,6.77
2017-10-02T09:16:52.785Z,6.93
2017-10-02T09:19:20.364Z,6.83
2017-10-02T09:21:47.866Z,8.43
2017-10-02T09:24:15.356Z,7.80
2017-10-02T09:26:42.896Z,7.27
2017-10-02T09:29:10.428Z,9.20
2017-10-02T09:31:37.944Z,6.93
2017-10-02T09:34:05.626Z,14.03
2017-10-02T09:36:33.163Z,6.27
2017-10-02T09:39:00.680Z,6.43
2017-10-02T09:41:28.263Z,9.37
2017-10-02T09:43:56.529Z,7.43
2017-10-02T09:46:24.036Z,9.00
2017-10-02T09:48:51.570Z,7.13
2017-10-02T09:51:19.071Z,5.67
2017-10-02T09:53:46.623Z,7.20
2017-10-02T09:56:14.122Z,11.00
2017-10-02T09:58:41.605Z,8.70
2017-10-02T10:01:09.929Z,5.37
2017-10-02T10:03:37.423Z,8.70
2017-10-02T10:06:05.692Z,7.83
2017-10-02T10:08:33.239Z,7.23
2017-10-02T10:11:00.736Z,8.13
2017-10-02T10:13:28.287Z,5.60
2017-10-02T10:15:55.780Z,4.13
2017-10-02T10:18:23.301Z,8.37
2017-10-02T10:20:50.806Z,10.67
2017-10-02T10:23:18.347Z,4.70
2017-10-02T10:25:45.840Z,4.50
2017-10-02T10:28:13.667Z,5.53
2017-10-02T10:30:41.334Z,4.30
2017-10-02T10:33:09.252Z,5.90
2017-10-02T10:35:36.773Z,3.67
2017-10-02T10:38:04.303Z,7.73
2017-10-02T10:40:31.844Z,5.13
2017-10-02T10:42:59.737Z,5.00
2017-10-02T10:45:27.231Z,3.57
2017-10-02T10:47:55.555Z,3.53
2017-10-02T10:50:23.068Z,5.40
2017-10-02T10:52:50.644Z,6.30
2017-10-02T10:55:18.181Z,6.50
2017-10-02T10:57:45.821Z,5.93
2017-10-02T11:00:13.383Z,4.60
2017-10-02T11:02:40.881Z,4.53
2017-10-02T11:05:08.390Z,6.93
2017-10-02T11:07:35.923Z,3.90
2017-10-02T11:10:04.181Z,4.70
2017-10-02T11:12:31.704Z,7.43
2017-10-02T11:14:59.197Z,6.17
2017-10-02T11:17:26.769Z,5.50
2017-10-02T11:19:54.283Z,4.00
2017-10-02T11:22:21.780Z,6.00
2017-10-02T11:24:49.434Z,4.80
2017-10-02T11:27:16.943Z,5.87
2017-10-02T11:29:45.252Z,7.30
2017-10-02T11:32:12.764Z,2.90
2017-10-02T11:34:40.327Z,3.77
2017-10-02T11:37:07.830Z,3.50
2017-10-02T11:39:35.328Z,2.83
2017-10-02T11:42:03.907Z,5.87
2017-10-02T11:44:31.413Z,3.10
2017-10-02T11:46:58.946Z,2.53
2017-10-02T11:49:26.464Z,2.73
2017-10-02T11:51:54.183Z,6.47
2017-10-02T11:54:22.100Z,2.53
2017-10-02T11:56:49.597Z,4.40
2017-10-02T11:59:17.130Z,2.53
2017-10-02T12:01:45.544Z,2.27
2017-10-02T12:04:13.496Z,3.50
2017-10-02T12:06:41.112Z,3.53
2017-10-02T12:09:08.640Z,5.67
2017-10-02T12:11:36.251Z,3.77
2017-10-02T12:14:04.791Z,4.73
2017-10-02T12:16:32.285Z,4.80
2017-10-02T12:18:59.822Z,2.43
2017-10-02T12:21:27.328Z,3.13
2017-10-02T12:23:54.850Z,5.27
2017-10-02T12:26:22.394Z,2.37
2017-10-02T12:28:49.901Z,2.73
2017-10-02T12:31:18.249Z,2.30
2017-10-02T12:33:46.014Z,4.10
2017-10-02T12:36:14.267Z,2.90
2017-10-02T12:38:42.007Z,3.70
2017-10-02T12:41:09.539Z,5.63
2017-10-02T12:43:37.233Z,5.00
2017-10-02T12:46:04.755Z,4.93
2017-10-02T12:48:32.684Z,4.70
2017-10-02T12:51:00.612Z,4.00
2017-10-02T12:53:28.111Z,3.53
2017-10-02T12:55:55.687Z,6.20
2017-10-02T12:58:23.184Z,2.87
2017-10-02T13:00:50.788Z,4.47
2017-10-02T13:03:18.713Z,5.30
2017-10-02T13:05:46.212Z,5.30
2017-10-02T13:08:14.142Z,9.63
2017-10-02T13:10:41.636Z,5.67
2017-10-02T13:13:09.138Z,4.07
2017-10-02T13:15:37.438Z,9.47
2017-10-02T13:18:04.941Z,7.70
2017-10-02T13:20:32.487Z,5.10
2017-10-02T13:23:00.224Z,4.00
2017-10-02T13:25:27.718Z,13.90
2017-10-02T13:27:55.906Z,3.47
2017-10-02T13:30:23.428Z,6.40
2017-10-02T13:32:50.955Z,6.43
2017-10-02T13:35:19.302Z,5.33
2017-10-02T13:37:47.000Z,4.40
2017-10-02T13:40:14.547Z,4.33
2017-10-02T13:42:42.815Z,11.73
2017-10-02T13:45:10.340Z,5.13
2017-10-02T13:47:37.872Z,3.83
2017-10-02T13:50:05.363Z,8.30
2017-10-02T13:52:32.884Z,7.43
2017-10-02T13:55:00.379Z,3.07
2017-10-02T13:57:27.955Z,3.67
2017-10-02T13:59:56.839Z,8.23
2017-10-02T14:02:24.332Z,9.67
2017-10-02T14:04:52.660Z,3.40
2017-10-02T14:07:20.390Z,4.63
2017-10-02T14:09:47.916Z,3.20
2017-10-02T14:12:15.803Z,4.20
2017-10-02T14:14:43.332Z,8.83
2017-10-02T14:17:10.868Z,5.10
2017-10-02T14:19:38.361Z,3.13
2017-10-02T14:22:05.889Z,8.57
2017-10-02T14:24:33.382Z,4.80
2017-10-02T14:27:01.638Z,7.30
2017-10-02T14:29:29.343Z,6.30
2017-10-02T14:31:57.625Z,5.70
2017-10-02T14:34:25.111Z,4.10
2017-10-02T14:36:52.642Z,5.10
2017-10-02T14:39:20.177Z,3.33
2017-10-02T14:41:48.447Z,4.20
2017-10-02T14:44:16.703Z,5.50
2017-10-02T14:46:44.239Z,5.93
2017-10-02T14:49:11.768Z,4.30
2017-10-02T14:51:39.277Z,8.43
2017-10-02T14:54:06.844Z,8.90
2017-10-02T14:56:34.364Z,10.33
2017-10-02T14:59:01.867Z,11.53
2017-10-02T15:01:29.384Z,5.70
2017-10-02T15:03:56.919Z,3.80
2017-10-02T15:06:25.278Z,5.80
2017-10-02T15:08:52.840Z,3.43
2017-10-02T15:11:20.759Z,3.27
2017-10-02T15:13:48.252Z,7.23
2017-10-02T15:16:15.799Z,3.77
2017-10-02T15:18:43.288Z,4.27
2017-10-02T15:21:10.831Z,4.27
2017-10-02T15:23:38.733Z,7.13
2017-10-02T15:26:06.228Z,12.43
2017-10-02T15:28:33.756Z,6.57
2017-10-02T15:31:01.648Z,3.40
2017-10-02T15:33:29.174Z,5.10
2017-10-02T15:35:57.116Z,7.30
2017-10-02T15:38:24.615Z,2.93
2017-10-02T15:40:52.127Z,7.07
2017-10-02T15:43:20.041Z,8.43
2017-10-02T15:45:47.544Z,3.70
2017-10-02T15:48:15.054Z,7.53
2017-10-02T15:50:42.571Z,6.20
2017-10-02T15:53:10.123Z,4.20
2017-10-02T15:55:38.406Z,8.57
2017-10-02T15:58:06.676Z,13.33
2017-10-02T16:00:34.993Z,6.20
2017-10-02T16:03:02.496Z,5.20
2017-10-02T16:05:30.113Z,4.53
2017-10-02T16:07:57.821Z,3.40
2017-10-02T16:10:25.320Z,4.53
2017-10-02T16:12:52.842Z,5.40
2017-10-02T16:15:20.376Z,4.00
2017-10-02T16:17:48.024Z,4.10
2017-10-02T16:20:15.605Z,9.73
2017-10-02T16:22:43.247Z,11.63
2017-10-02T16:25:10.765Z,5.20
2017-10-02T16:27:39.284Z,4.87
2017-10-02T16:30:06.824Z,15.30
2017-10-02T16:32:35.092Z,15.50
2017-10-02T16:35:02.717Z,23.03
2017-10-02T16:37:31.017Z,13.50
2017-10-02T16:39:58.909Z,4.10
2017-10-02T16:42:26.454Z,4.27
2017-10-02T16:44:53.965Z,5.30
2017-10-02T16:47:21.726Z,4.77
2017-10-02T16:49:49.240Z,6.57
2017-10-02T16:54:51.448Z,3.77
2017-10-02T16:57:18.975Z,6.53
2017-10-02T16:59:47.387Z,7.60
2017-10-02T17:02:14.912Z,8.57
2017-10-02T17:04:42.611Z,5.13
2017-10-02T17:07:10.150Z,4.27
2017-10-02T17:09:38.793Z,5.97
2017-10-02T17:12:06.332Z,9.13
2017-10-02T17:14:33.973Z,5.80
2017-10-02T17:17:01.498Z,6.77
2017-10-02T17:19:29.019Z,6.63
2017-10-02T17:21:56.553Z,4.93
2017-10-02T17:24:24.487Z,4.80
2017-10-02T17:26:52.757Z,5.80
2017-10-02T17:29:21.019Z,5.80
2017-10-02T17:31:48.587Z,6.10
2017-10-02T17:34:16.127Z,8.90
2017-10-02T17:36:43.695Z,5.93
2017-10-02T17:39:11.216Z,5.03
2017-10-02T17:41:38.716Z,6.23
2017-10-02T17:44:06.240Z,6.70
2017-10-02T17:46:33.735Z,5.60
2017-10-02T17:49:01.268Z,6.50
2017-10-02T17:51:28.828Z,3.63
2017-10-02T17:53:56.816Z,4.70
2017-10-02T17:56:24.321Z,6.10
2017-10-02T17:58:51.858Z,4.33
2017-10-02T18:01:20.274Z,6.57
2017-10-02T18:03:47.762Z,9.37
2017-10-02T18:06:15.648Z,9.40
2017-10-02T18:08:43.220Z,6.10
2017-10-02T18:11:11.492Z,7.10
2017-10-02T18:13:39.022Z,6.90
2017-10-02T18:16:06.568Z,5.67
2017-10-02T18:18:34.102Z,5.53
2017-10-02T18:21:01.676Z,7.77
2017-10-02T18:23:29.159Z,6.30
2017-10-02T18:25:57.111Z,9.30
2017-10-02T18:28:24.909Z,7.27
2017-10-02T18:30:52.425Z,6.30
2017-10-02T18:33:19.972Z,5.13
2017-10-02T18:35:47.889Z,7.67
2017-10-02T18:38:15.449Z,12.83
2017-10-02T18:40:43.943Z,6.50
2017-10-02T18:43:12.259Z,5.60
2017-10-02T18:45:40.023Z,10.47
2017-10-02T18:48:07.548Z,9.80
2017-10-02T18:50:35.048Z,5.30
2017-10-02T18:53:02.612Z,4.73
2017-10-02T18:55:30.114Z,5.83
2017-10-02T18:57:58.663Z,7.43
2017-10-02T19:00:26.188Z,7.00
2017-10-02T19:02:53.684Z,11.00
2017-10-02T19:05:21.229Z,8.33
2017-10-02T19:07:48.712Z,5.97
2017-10-02T19:10:16.239Z,11.87
2017-10-02T19:12:44.813Z,6.57
2017-10-02T19:15:12.307Z,6.07
2017-10-02T19:17:39.824Z,7.20
2017-10-02T19:20:07.371Z,13.20
2017-10-02T19:22:34.856Z,3.60
2017-10-02T19:25:02.407Z,3.90
2017-10-02T19:27:29.939Z,4.90
2017-10-02T19:29:57.435Z,4.63
2017-10-02T19:32:24.951Z,7.23
2017-10-02T19:34:52.482Z,11.90
2017-10-02T19:37:19.976Z,5.67
2017-10-02T19:39:48.240Z,5.43
2017-10-02T19:42:15.760Z,5.23
2017-10-02T19:44:43.307Z,8.50
2017-10-02T19:47:10.826Z,7.77
2017-10-02T19:49:38.384Z,8.00
2017-10-02T19:52:06.647Z,3.93
2017-10-02T19:54:34.912Z,4.23
2017-10-02T19:57:02.492Z,8.83
2017-10-02T19:59:29.992Z,5.10
2017-10-02T20:01:57.493Z,5.87
2017-10-02T20:04:25.034Z,5.83
2017-10-02T20:06:52.573Z,4.70
2017-10-02T20:09:20.217Z,5.97
2017-10-02T20:11:48.507Z,6.37
2017-10-02T20:14:16.155Z,10.77
2017-10-02T20:16:43.664Z,3.37
2017-10-02T20:19:11.210Z,6.00
2017-10-02T20:21:38.741Z,4.43
2017-10-02T20:24:06.635Z,4.73
2017-10-02T20:26:34.150Z,6.20
2017-10-02T20:29:01.657Z,4.40
2017-10-02T20:31:29.183Z,4.57
2017-10-02T20:33:56.679Z,3.80
2017-10-02T20:36:25.015Z,3.30
2017-10-02T20:38:52.504Z,4.90
2017-10-02T20:41:19.993Z,5.13
2017-10-02T20:43:47.544Z,4.60
2017-10-02T20:46:15.284Z,11.10
2017-10-02T20:48:42.772Z,6.83
2017-10-02T20:51:10.544Z,6.67
2017-10-02T20:53:38.033Z,7.57
2017-10-02T20:56:05.805Z,4.37
2017-10-02T20:58:33.661Z,5.73
2017-10-02T21:01:01.167Z,7.70
2017-10-02T21:03:28.661Z,3.73
2017-10-02T21:05:56.203Z,5.43
2017-10-02T21:08:23.948Z,6.03
2017-10-02T21:10:51.469Z,4.33
2017-10-02T21:13:18.964Z,3.73
2017-10-02T21:15:46.535Z,7.00
2017-10-02T21:18:14.792Z,8.60
2017-10-02T21:20:42.308Z,13.17
2017-10-02T21:23:09.847Z,12.27
2017-10-02T21:25:37.369Z,4.40
2017-10-02T21:28:05.295Z,5.97
2017-10-02T21:30:32.810Z,5.67
2017-10-02T21:33:00.696Z,5.70
2017-10-02T21:35:28.188Z,4.40
2017-10-02T21:37:55.711Z,6.83
2017-10-02T21:40:24.024Z,5.70
2017-10-02T21:42:51.519Z,5.23
2017-10-02T21:45:19.026Z,7.70
2017-10-02T21:47:46.544Z,4.40
2017-10-02T21:50:14.854Z,7.00
2017-10-02T21:52:43.162Z,3.57
2017-10-02T21:55:10.681Z,8.07
2017-10-02T21:57:38.403Z,3.90
2017-10-02T22:00:05.922Z,4.93
2017-10-02T22:02:33.738Z,4.20
2017-10-02T22:05:01.252Z,5.60
2017-10-02T22:07:28.751Z,7.60
2017-10-02T22:09:56.288Z,6.13
2017-10-02T22:12:23.778Z,4.17
2017-10-02T22:14:51.308Z,4.73
2017-10-02T22:17:18.797Z,5.47
2017-10-02T22:19:47.055Z,3.97
2017-10-02T22:22:14.597Z,9.03
2017-10-02T22:24:42.483Z,6.07
2017-10-02T22:27:09.983Z,5.53
2017-10-02T22:29:37.528Z,4.27
2017-10-02T22:32:05.787Z,6.90
2017-10-02T22:34:33.495Z,5.80
2017-10-02T22:37:01.017Z,3.53
2017-10-02T22:39:28.511Z,5.00
2017-10-02T22:41:56.447Z,6.83
2017-10-02T22:44:24.741Z,9.60
2017-10-02T22:46:52.514Z,3.30
2017-10-02T22:49:20.030Z,3.80
2017-10-02T22:51:47.935Z,3.17
2017-10-02T22:54:15.516Z,6.00
2017-10-02T22:56:43.007Z,5.33
2017-10-02T22:59:10.545Z,3.70
2017-10-02T23:01:38.051Z,6.40
2017-10-02T23:04:05.999Z,6.33
2017-10-02T23:06:33.539Z,2.77
2017-10-02T23:09:01.066Z,3.80
2017-10-02T23:11:28.553Z,4.07
2017-10-02T23:13:56.071Z,4.77
2017-10-02T23:16:23.993Z,4.60
2017-10-02T23:18:51.488Z,2.23
2017-10-02T23:21:19.798Z,2.50
2017-10-02T23:23:47.348Z,4.90
2017-10-02T23:26:14.843Z,10.70
2017-10-02T23:28:42.420Z,4.30
2017-10-02T23:31:09.911Z,6.97
2017-10-02T23:33:37.455Z,5.50
2017-10-02T23:36:05.716Z,2.13
2017-10-02T23:38:33.206Z,2.07
2017-10-02T23:41:00.728Z,2.20
2017-10-02T23:43:28.264Z,2.23
2017-10-02T23:45:55.752Z,5.10
2017-10-02T23:48:24.009Z,5.73
2017-10-02T23:50:51.543Z,2.53
2017-10-02T23:53:19.287Z,6.10
2017-10-02T23:55:46.772Z,3.50
2017-10-02T23:58:14.311Z,2.30
